sensor_id;sensor_type;location;lat;lon;timestamp;temperature;humidity
51215;DHT22;63849;47.546;19.254;2022-12-18T00:03:35;2.00;67.40
51215;DHT22;63849;47.546;19.254;2022-12-18T00:06:01;2.00;68.40
51215;DHT22;63849;47.546;19.254;2022-12-18T00:08:27;2.00;68.60
51215;DHT22;63849;47.546;19.254;2022-12-18T00:10:53;2.10;68.60
51215;DHT22;63849;47.546;19.254;2022-12-18T00:13:19;2.10;68.80
51215;DHT22;63849;47.546;19.254;2022-12-18T00:15:45;2.10;68.30
51215;DHT22;63849;47.546;19.254;2022-12-18T00:18:11;2.10;68.60
51215;DHT22;63849;47.546;19.254;2022-12-18T00:20:38;1.80;68.80
51215;DHT22;63849;47.546;19.254;2022-12-18T00:23:05;2.00;69.30
51215;DHT22;63849;47.546;19.254;2022-12-18T00:25:36;2.10;68.70
51215;DHT22;63849;47.546;19.254;2022-12-18T00:28:05;2.10;68.90
51215;DHT22;63849;47.546;19.254;2022-12-18T00:30:30;2.10;69.10
51215;DHT22;63849;47.546;19.254;2022-12-18T00:32:57;2.00;69.00
51215;DHT22;63849;47.546;19.254;2022-12-18T00:35:23;2.00;69.30
51215;DHT22;63849;47.546;19.254;2022-12-18T00:37:48;2.00;69.60
51215;DHT22;63849;47.546;19.254;2022-12-18T00:40:14;2.10;69.70
51215;DHT22;63849;47.546;19.254;2022-12-18T00:42:40;2.10;69.40
51215;DHT22;63849;47.546;19.254;2022-12-18T00:45:23;2.10;69.90
51215;DHT22;63849;47.546;19.254;2022-12-18T00:47:49;2.10;69.70
51215;DHT22;63849;47.546;19.254;2022-12-18T00:50:15;2.10;69.20
51215;DHT22;63849;47.546;19.254;2022-12-18T00:52:41;2.10;69.50
51215;DHT22;63849;47.546;19.254;2022-12-18T00:55:13;2.00;69.70
51215;DHT22;63849;47.546;19.254;2022-12-18T00:57:40;2.10;69.60
51215;DHT22;63849;47.546;19.254;2022-12-18T01:00:08;2.10;69.70
51215;DHT22;63849;47.546;19.254;2022-12-18T01:02:34;2.10;69.70
51215;DHT22;63849;47.546;19.254;2022-12-18T01:05:00;2.10;69.80
51215;DHT22;63849;47.546;19.254;2022-12-18T01:07:26;2.10;69.90
51215;DHT22;63849;47.546;19.254;2022-12-18T01:09:52;2.10;70.20
51215;DHT22;63849;47.546;19.254;2022-12-18T01:12:18;2.10;70.00
51215;DHT22;63849;47.546;19.254;2022-12-18T01:14:43;2.00;70.30
51215;DHT22;63849;47.546;19.254;2022-12-18T01:17:09;2.10;69.90
51215;DHT22;63849;47.546;19.254;2022-12-18T01:19:35;2.10;69.70
51215;DHT22;63849;47.546;19.254;2022-12-18T01:22:01;2.10;69.50
51215;DHT22;63849;47.546;19.254;2022-12-18T01:24:27;2.00;69.70
51215;DHT22;63849;47.546;19.254;2022-12-18T01:26:52;2.10;69.40
51215;DHT22;63849;47.546;19.254;2022-12-18T01:29:18;2.00;69.20
51215;DHT22;63849;47.546;19.254;2022-12-18T01:31:44;2.10;69.10
51215;DHT22;63849;47.546;19.254;2022-12-18T01:34:10;2.00;69.30
51215;DHT22;63849;47.546;19.254;2022-12-18T01:36:37;1.90;69.10
51215;DHT22;63849;47.546;19.254;2022-12-18T01:39:14;1.80;69.50
51215;DHT22;63849;47.546;19.254;2022-12-18T01:41:40;1.90;69.50
51215;DHT22;63849;47.546;19.254;2022-12-18T01:47:20;1.90;69.30
51215;DHT22;63849;47.546;19.254;2022-12-18T01:49:47;2.00;69.50
51215;DHT22;63849;47.546;19.254;2022-12-18T01:52:13;1.90;69.50
51215;DHT22;63849;47.546;19.254;2022-12-18T01:54:39;2.00;69.80
51215;DHT22;63849;47.546;19.254;2022-12-18T01:57:05;2.10;69.60
51215;DHT22;63849;47.546;19.254;2022-12-18T01:59:32;2.10;69.70
51215;DHT22;63849;47.546;19.254;2022-12-18T02:01:59;2.10;69.30
51215;DHT22;63849;47.546;19.254;2022-12-18T02:04:27;2.20;69.00
51215;DHT22;63849;47.546;19.254;2022-12-18T02:07:30;2.10;69.00
51215;DHT22;63849;47.546;19.254;2022-12-18T02:10:39;2.10;69.20
51215;DHT22;63849;47.546;19.254;2022-12-18T02:13:32;2.10;69.10
51215;DHT22;63849;47.546;19.254;2022-12-18T02:18:44;2.10;69.10
51215;DHT22;63849;47.546;19.254;2022-12-18T02:21:28;2.20;68.90
51215;DHT22;63849;47.546;19.254;2022-12-18T02:24:17;2.10;68.80
51215;DHT22;63849;47.546;19.254;2022-12-18T02:26:49;1.90;69.40
51215;DHT22;63849;47.546;19.254;2022-12-18T02:29:30;2.00;69.10
51215;DHT22;63849;47.546;19.254;2022-12-18T02:31:58;2.00;69.10
51215;DHT22;63849;47.546;19.254;2022-12-18T02:34:28;2.10;68.80
51215;DHT22;63849;47.546;19.254;2022-12-18T02:36:56;2.00;69.40
51215;DHT22;63849;47.546;19.254;2022-12-18T02:39:25;1.80;69.00
51215;DHT22;63849;47.546;19.254;2022-12-18T02:41:52;1.90;69.30
51215;DHT22;63849;47.546;19.254;2022-12-18T02:44:18;1.90;69.00
51215;DHT22;63849;47.546;19.254;2022-12-18T02:46:50;1.90;69.20
51215;DHT22;63849;47.546;19.254;2022-12-18T02:54:55;1.80;69.80
51215;DHT22;63849;47.546;19.254;2022-12-18T02:57:32;1.70;69.40
51215;DHT22;63849;47.546;19.254;2022-12-18T03:00:07;1.80;69.90
51215;DHT22;63849;47.546;19.254;2022-12-18T03:02:43;1.80;69.50
51215;DHT22;63849;47.546;19.254;2022-12-18T03:05:22;1.70;69.60
51215;DHT22;63849;47.546;19.254;2022-12-18T03:08:06;1.80;69.50
51215;DHT22;63849;47.546;19.254;2022-12-18T03:10:37;1.80;69.50
51215;DHT22;63849;47.546;19.254;2022-12-18T03:13:09;1.80;69.20
51215;DHT22;63849;47.546;19.254;2022-12-18T03:15:48;1.80;69.40
51215;DHT22;63849;47.546;19.254;2022-12-18T03:18:23;1.80;69.00
51215;DHT22;63849;47.546;19.254;2022-12-18T03:20:52;1.60;69.10
51215;DHT22;63849;47.546;19.254;2022-12-18T03:23:25;1.80;69.30
51215;DHT22;63849;47.546;19.254;2022-12-18T03:25:55;1.70;69.40
51215;DHT22;63849;47.546;19.254;2022-12-18T03:28:23;1.70;69.40
51215;DHT22;63849;47.546;19.254;2022-12-18T03:30:56;1.70;69.50
51215;DHT22;63849;47.546;19.254;2022-12-18T03:33:29;1.70;69.40
51215;DHT22;63849;47.546;19.254;2022-12-18T03:35:56;1.50;69.20
51215;DHT22;63849;47.546;19.254;2022-12-18T03:38:21;1.50;69.40
51215;DHT22;63849;47.546;19.254;2022-12-18T03:41:29;1.50;69.00
51215;DHT22;63849;47.546;19.254;2022-12-18T03:44:08;1.50;69.00
51215;DHT22;63849;47.546;19.254;2022-12-18T03:49:27;1.30;69.40
51215;DHT22;63849;47.546;19.254;2022-12-18T03:54:45;1.30;69.60
51215;DHT22;63849;47.546;19.254;2022-12-18T03:57:18;1.30;69.40
51215;DHT22;63849;47.546;19.254;2022-12-18T03:59:45;1.20;69.50
51215;DHT22;63849;47.546;19.254;2022-12-18T04:02:14;1.10;69.40
51215;DHT22;63849;47.546;19.254;2022-12-18T04:04:42;1.00;69.80
51215;DHT22;63849;47.546;19.254;2022-12-18T04:07:08;1.10;69.70
51215;DHT22;63849;47.546;19.254;2022-12-18T04:09:36;1.00;69.60
51215;DHT22;63849;47.546;19.254;2022-12-18T04:12:02;1.00;69.60
51215;DHT22;63849;47.546;19.254;2022-12-18T04:14:28;1.10;69.50
51215;DHT22;63849;47.546;19.254;2022-12-18T04:16:54;1.00;69.20
51215;DHT22;63849;47.546;19.254;2022-12-18T04:19:19;0.90;69.20
51215;DHT22;63849;47.546;19.254;2022-12-18T04:21:45;1.10;69.40
51215;DHT22;63849;47.546;19.254;2022-12-18T04:24:11;0.90;69.20
51215;DHT22;63849;47.546;19.254;2022-12-18T04:26:37;1.00;68.60
51215;DHT22;63849;47.546;19.254;2022-12-18T04:29:03;0.90;68.60
51215;DHT22;63849;47.546;19.254;2022-12-18T04:31:29;1.00;68.70
51215;DHT22;63849;47.546;19.254;2022-12-18T04:33:55;1.00;68.60
51215;DHT22;63849;47.546;19.254;2022-12-18T04:36:21;1.00;68.20
51215;DHT22;63849;47.546;19.254;2022-12-18T04:38:46;1.00;68.10
51215;DHT22;63849;47.546;19.254;2022-12-18T04:41:12;1.10;68.00
51215;DHT22;63849;47.546;19.254;2022-12-18T04:43:38;0.80;67.70
51215;DHT22;63849;47.546;19.254;2022-12-18T04:46:07;0.80;68.10
51215;DHT22;63849;47.546;19.254;2022-12-18T04:48:35;0.80;68.20
51215;DHT22;63849;47.546;19.254;2022-12-18T04:51:02;0.90;68.10
51215;DHT22;63849;47.546;19.254;2022-12-18T04:53:27;0.90;67.90
51215;DHT22;63849;47.546;19.254;2022-12-18T04:56:08;1.00;67.50
51215;DHT22;63849;47.546;19.254;2022-12-18T04:58:34;0.90;67.40
51215;DHT22;63849;47.546;19.254;2022-12-18T05:01:01;0.90;67.60
51215;DHT22;63849;47.546;19.254;2022-12-18T05:03:27;0.80;67.50
51215;DHT22;63849;47.546;19.254;2022-12-18T05:05:53;0.90;68.00
51215;DHT22;63849;47.546;19.254;2022-12-18T05:08:18;0.90;67.20
51215;DHT22;63849;47.546;19.254;2022-12-18T05:10:44;0.80;67.10
51215;DHT22;63849;47.546;19.254;2022-12-18T05:13:11;0.80;67.40
51215;DHT22;63849;47.546;19.254;2022-12-18T05:15:36;0.80;67.60
51215;DHT22;63849;47.546;19.254;2022-12-18T05:18:03;0.80;67.60
51215;DHT22;63849;47.546;19.254;2022-12-18T05:20:29;1.00;67.40
51215;DHT22;63849;47.546;19.254;2022-12-18T05:22:55;1.00;67.10
51215;DHT22;63849;47.546;19.254;2022-12-18T05:25:22;1.00;67.20
51215;DHT22;63849;47.546;19.254;2022-12-18T05:27:48;0.80;67.20
51215;DHT22;63849;47.546;19.254;2022-12-18T05:30:15;0.80;67.60
51215;DHT22;63849;47.546;19.254;2022-12-18T05:32:41;0.90;67.20
51215;DHT22;63849;47.546;19.254;2022-12-18T05:35:09;0.90;66.90
51215;DHT22;63849;47.546;19.254;2022-12-18T05:37:35;1.00;66.70
51215;DHT22;63849;47.546;19.254;2022-12-18T05:40:03;1.00;66.30
51215;DHT22;63849;47.546;19.254;2022-12-18T05:42:30;0.90;66.90
51215;DHT22;63849;47.546;19.254;2022-12-18T05:44:55;0.90;67.10
51215;DHT22;63849;47.546;19.254;2022-12-18T05:47:21;0.80;67.10
51215;DHT22;63849;47.546;19.254;2022-12-18T05:49:47;0.90;67.10
51215;DHT22;63849;47.546;19.254;2022-12-18T05:52:13;0.90;67.00
51215;DHT22;63849;47.546;19.254;2022-12-18T05:54:39;0.80;67.20
51215;DHT22;63849;47.546;19.254;2022-12-18T05:57:05;0.90;67.10
51215;DHT22;63849;47.546;19.254;2022-12-18T05:59:31;0.80;67.30
51215;DHT22;63849;47.546;19.254;2022-12-18T06:01:57;0.70;67.00
51215;DHT22;63849;47.546;19.254;2022-12-18T06:04:26;0.80;67.20
51215;DHT22;63849;47.546;19.254;2022-12-18T06:06:58;0.80;67.10
51215;DHT22;63849;47.546;19.254;2022-12-18T06:09:24;0.70;67.00
51215;DHT22;63849;47.546;19.254;2022-12-18T06:11:51;0.60;67.30
51215;DHT22;63849;47.546;19.254;2022-12-18T06:14:20;0.60;67.60
51215;DHT22;63849;47.546;19.254;2022-12-18T06:16:46;0.70;67.30
51215;DHT22;63849;47.546;19.254;2022-12-18T06:19:15;0.50;67.30
51215;DHT22;63849;47.546;19.254;2022-12-18T06:21:41;0.50;67.20
51215;DHT22;63849;47.546;19.254;2022-12-18T06:24:08;0.50;67.60
51215;DHT22;63849;47.546;19.254;2022-12-18T06:26:33;0.60;67.40
51215;DHT22;63849;47.546;19.254;2022-12-18T06:28:59;0.60;67.30
51215;DHT22;63849;47.546;19.254;2022-12-18T06:31:25;0.50;67.20
51215;DHT22;63849;47.546;19.254;2022-12-18T06:33:51;0.40;67.60
51215;DHT22;63849;47.546;19.254;2022-12-18T06:36:17;0.40;67.90
51215;DHT22;63849;47.546;19.254;2022-12-18T06:38:44;0.50;67.90
51215;DHT22;63849;47.546;19.254;2022-12-18T06:41:11;0.60;67.70
51215;DHT22;63849;47.546;19.254;2022-12-18T06:43:38;0.60;67.70
51215;DHT22;63849;47.546;19.254;2022-12-18T06:46:04;0.70;67.30
51215;DHT22;63849;47.546;19.254;2022-12-18T06:48:30;0.60;67.30
51215;DHT22;63849;47.546;19.254;2022-12-18T06:50:57;0.60;67.70
51215;DHT22;63849;47.546;19.254;2022-12-18T06:53:23;0.60;68.00
51215;DHT22;63849;47.546;19.254;2022-12-18T06:55:49;0.60;67.70
51215;DHT22;63849;47.546;19.254;2022-12-18T06:58:15;0.50;68.00
51215;DHT22;63849;47.546;19.254;2022-12-18T07:00:41;0.40;67.80
51215;DHT22;63849;47.546;19.254;2022-12-18T07:03:07;0.40;68.00
51215;DHT22;63849;47.546;19.254;2022-12-18T07:05:33;0.40;68.20
51215;DHT22;63849;47.546;19.254;2022-12-18T07:07:59;0.50;68.40
51215;DHT22;63849;47.546;19.254;2022-12-18T07:10:25;0.50;68.40
51215;DHT22;63849;47.546;19.254;2022-12-18T07:12:51;0.40;68.40
51215;DHT22;63849;47.546;19.254;2022-12-18T07:15:17;0.60;68.40
51215;DHT22;63849;47.546;19.254;2022-12-18T07:17:43;0.60;68.00
51215;DHT22;63849;47.546;19.254;2022-12-18T07:20:09;0.50;67.90
51215;DHT22;63849;47.546;19.254;2022-12-18T07:22:35;0.70;68.00
51215;DHT22;63849;47.546;19.254;2022-12-18T07:25:00;0.70;68.20
51215;DHT22;63849;47.546;19.254;2022-12-18T07:27:26;0.70;68.60
51215;DHT22;63849;47.546;19.254;2022-12-18T07:29:52;0.80;68.60
51215;DHT22;63849;47.546;19.254;2022-12-18T07:32:18;0.80;68.10
51215;DHT22;63849;47.546;19.254;2022-12-18T07:34:44;0.80;68.70
51215;DHT22;63849;47.546;19.254;2022-12-18T07:37:09;0.80;68.60
51215;DHT22;63849;47.546;19.254;2022-12-18T07:39:35;0.80;68.60
51215;DHT22;63849;47.546;19.254;2022-12-18T07:42:01;0.80;68.60
51215;DHT22;63849;47.546;19.254;2022-12-18T07:44:45;0.90;68.80
51215;DHT22;63849;47.546;19.254;2022-12-18T07:47:11;1.10;68.50
51215;DHT22;63849;47.546;19.254;2022-12-18T07:49:38;1.10;68.30
51215;DHT22;63849;47.546;19.254;2022-12-18T07:52:04;1.10;68.30
51215;DHT22;63849;47.546;19.254;2022-12-18T07:54:29;1.20;68.40
51215;DHT22;63849;47.546;19.254;2022-12-18T07:56:55;1.10;67.80
51215;DHT22;63849;47.546;19.254;2022-12-18T07:59:21;1.10;68.20
51215;DHT22;63849;47.546;19.254;2022-12-18T08:01:46;0.90;68.30
51215;DHT22;63849;47.546;19.254;2022-12-18T08:04:12;1.00;68.60
51215;DHT22;63849;47.546;19.254;2022-12-18T08:06:38;1.10;68.60
51215;DHT22;63849;47.546;19.254;2022-12-18T08:09:04;1.20;68.50
51215;DHT22;63849;47.546;19.254;2022-12-18T08:11:30;1.30;68.60
51215;DHT22;63849;47.546;19.254;2022-12-18T08:13:56;1.10;69.20
51215;DHT22;63849;47.546;19.254;2022-12-18T08:16:22;1.20;69.50
51215;DHT22;63849;47.546;19.254;2022-12-18T08:18:48;1.40;68.80
51215;DHT22;63849;47.546;19.254;2022-12-18T08:21:19;1.30;68.80
51215;DHT22;63849;47.546;19.254;2022-12-18T08:23:47;1.40;68.90
51215;DHT22;63849;47.546;19.254;2022-12-18T08:26:13;1.30;68.70
51215;DHT22;63849;47.546;19.254;2022-12-18T08:28:40;1.40;68.80
51215;DHT22;63849;47.546;19.254;2022-12-18T08:31:06;1.30;69.50
51215;DHT22;63849;47.546;19.254;2022-12-18T08:33:32;1.30;69.80
51215;DHT22;63849;47.546;19.254;2022-12-18T08:35:59;1.50;69.00
51215;DHT22;63849;47.546;19.254;2022-12-18T08:38:25;1.50;68.50
51215;DHT22;63849;47.546;19.254;2022-12-18T08:41:08;1.40;68.10
51215;DHT22;63849;47.546;19.254;2022-12-18T08:43:34;1.40;67.80
51215;DHT22;63849;47.546;19.254;2022-12-18T08:46:19;1.50;67.10
51215;DHT22;63849;47.546;19.254;2022-12-18T08:48:45;1.40;67.10
51215;DHT22;63849;47.546;19.254;2022-12-18T08:51:11;1.40;67.00
51215;DHT22;63849;47.546;19.254;2022-12-18T08:53:37;1.40;67.70
51215;DHT22;63849;47.546;19.254;2022-12-18T08:56:04;1.40;67.90
51215;DHT22;63849;47.546;19.254;2022-12-18T08:58:30;1.40;67.90
51215;DHT22;63849;47.546;19.254;2022-12-18T09:01:04;1.40;68.10
51215;DHT22;63849;47.546;19.254;2022-12-18T09:03:30;1.40;67.80
51215;DHT22;63849;47.546;19.254;2022-12-18T09:05:56;1.50;68.00
51215;DHT22;63849;47.546;19.254;2022-12-18T09:08:22;1.50;67.60
51215;DHT22;63849;47.546;19.254;2022-12-18T09:10:49;1.60;67.80
51215;DHT22;63849;47.546;19.254;2022-12-18T09:13:16;1.60;68.10
51215;DHT22;63849;47.546;19.254;2022-12-18T09:15:46;1.60;68.40
51215;DHT22;63849;47.546;19.254;2022-12-18T09:18:14;1.70;67.90
51215;DHT22;63849;47.546;19.254;2022-12-18T09:20:40;1.60;68.00
51215;DHT22;63849;47.546;19.254;2022-12-18T09:23:06;1.70;68.30
51215;DHT22;63849;47.546;19.254;2022-12-18T09:25:33;1.70;67.80
51215;DHT22;63849;47.546;19.254;2022-12-18T09:28:11;1.70;65.80
51215;DHT22;63849;47.546;19.254;2022-12-18T09:30:43;1.80;66.10
51215;DHT22;63849;47.546;19.254;2022-12-18T09:33:09;1.80;66.70
51215;DHT22;63849;47.546;19.254;2022-12-18T09:35:39;1.80;66.50
51215;DHT22;63849;47.546;19.254;2022-12-18T09:38:05;1.80;66.00
51215;DHT22;63849;47.546;19.254;2022-12-18T09:40:43;1.80;66.80
51215;DHT22;63849;47.546;19.254;2022-12-18T09:43:18;1.80;65.50
51215;DHT22;63849;47.546;19.254;2022-12-18T09:45:49;1.80;66.10
51215;DHT22;63849;47.546;19.254;2022-12-18T09:48:25;1.80;66.20
51215;DHT22;63849;47.546;19.254;2022-12-18T09:50:57;1.80;65.60
51215;DHT22;63849;47.546;19.254;2022-12-18T09:53:28;1.80;65.90
51215;DHT22;63849;47.546;19.254;2022-12-18T09:55:56;1.90;66.00
51215;DHT22;63849;47.546;19.254;2022-12-18T09:58:33;1.90;65.70
51215;DHT22;63849;47.546;19.254;2022-12-18T10:01:01;1.90;66.40
51215;DHT22;63849;47.546;19.254;2022-12-18T10:03:27;1.90;66.80
51215;DHT22;63849;47.546;19.254;2022-12-18T10:06:16;1.90;65.70
51215;DHT22;63849;47.546;19.254;2022-12-18T10:11:27;2.00;65.20
51215;DHT22;63849;47.546;19.254;2022-12-18T10:14:04;1.90;65.50
51215;DHT22;63849;47.546;19.254;2022-12-18T10:27:17;2.00;65.40
51215;DHT22;63849;47.546;19.254;2022-12-18T10:29:44;2.00;64.00
51215;DHT22;63849;47.546;19.254;2022-12-18T10:32:16;2.10;64.60
51215;DHT22;63849;47.546;19.254;2022-12-18T10:34:48;2.10;63.60
51215;DHT22;63849;47.546;19.254;2022-12-18T10:37:20;2.10;63.70
51215;DHT22;63849;47.546;19.254;2022-12-18T10:40:14;2.20;63.60
51215;DHT22;63849;47.546;19.254;2022-12-18T10:42:41;2.20;64.10
51215;DHT22;63849;47.546;19.254;2022-12-18T10:45:16;2.20;63.70
51215;DHT22;63849;47.546;19.254;2022-12-18T10:47:49;2.20;63.90
51215;DHT22;63849;47.546;19.254;2022-12-18T10:50:24;2.20;64.00
51215;DHT22;63849;47.546;19.254;2022-12-18T10:53:01;2.20;63.90
51215;DHT22;63849;47.546;19.254;2022-12-18T10:55:37;2.20;64.40
51215;DHT22;63849;47.546;19.254;2022-12-18T10:58:34;2.30;63.90
51215;DHT22;63849;47.546;19.254;2022-12-18T11:03:39;2.30;64.60
51215;DHT22;63849;47.546;19.254;2022-12-18T11:06:20;2.30;64.20
51215;DHT22;63849;47.546;19.254;2022-12-18T11:09:25;2.30;64.20
51215;DHT22;63849;47.546;19.254;2022-12-18T11:11:53;2.40;63.70
51215;DHT22;63849;47.546;19.254;2022-12-18T11:16:56;2.30;62.80
51215;DHT22;63849;47.546;19.254;2022-12-18T11:21:52;2.30;63.20
51215;DHT22;63849;47.546;19.254;2022-12-18T11:26:57;2.30;63.10
51215;DHT22;63849;47.546;19.254;2022-12-18T11:29:28;2.30;63.80
51215;DHT22;63849;47.546;19.254;2022-12-18T11:34:42;2.30;64.80
51215;DHT22;63849;47.546;19.254;2022-12-18T11:37:11;2.30;64.60
51215;DHT22;63849;47.546;19.254;2022-12-18T11:43:37;2.40;64.80
51215;DHT22;63849;47.546;19.254;2022-12-18T11:45:43;2.50;64.50
51215;DHT22;63849;47.546;19.254;2022-12-18T11:48:18;2.40;64.80
51215;DHT22;63849;47.546;19.254;2022-12-18T11:50:51;2.40;63.80
51215;DHT22;63849;47.546;19.254;2022-12-18T11:53:17;2.40;63.60
51215;DHT22;63849;47.546;19.254;2022-12-18T11:55:56;2.50;64.00
51215;DHT22;63849;47.546;19.254;2022-12-18T12:01:09;2.50;63.60
51215;DHT22;63849;47.546;19.254;2022-12-18T12:03:44;2.60;64.10
51215;DHT22;63849;47.546;19.254;2022-12-18T12:09:43;2.60;64.80
51215;DHT22;63849;47.546;19.254;2022-12-18T12:15:06;2.60;64.20
51215;DHT22;63849;47.546;19.254;2022-12-18T12:21:19;2.60;64.20
51215;DHT22;63849;47.546;19.254;2022-12-18T12:24:28;2.60;64.30
51215;DHT22;63849;47.546;19.254;2022-12-18T12:38:09;2.50;64.70
51215;DHT22;63849;47.546;19.254;2022-12-18T12:40:51;2.60;65.50
51215;DHT22;63849;47.546;19.254;2022-12-18T12:43:41;2.60;65.50
51215;DHT22;63849;47.546;19.254;2022-12-18T12:46:10;2.70;65.30
51215;DHT22;63849;47.546;19.254;2022-12-18T12:48:42;2.70;65.00
51215;DHT22;63849;47.546;19.254;2022-12-18T12:51:28;2.80;65.00
51215;DHT22;63849;47.546;19.254;2022-12-18T12:53:57;2.80;65.90
51215;DHT22;63849;47.546;19.254;2022-12-18T12:56:37;2.80;65.80
51215;DHT22;63849;47.546;19.254;2022-12-18T13:04:53;2.80;65.80
51215;DHT22;63849;47.546;19.254;2022-12-18T13:18:23;2.90;65.60
51215;DHT22;63849;47.546;19.254;2022-12-18T13:23:27;2.80;66.40
51215;DHT22;63849;47.546;19.254;2022-12-18T13:31:01;2.80;66.90
51215;DHT22;63849;47.546;19.254;2022-12-18T13:38:41;2.80;66.70
51215;DHT22;63849;47.546;19.254;2022-12-18T13:41:23;2.80;66.10
51215;DHT22;63849;47.546;19.254;2022-12-18T13:43:52;2.80;67.00
51215;DHT22;63849;47.546;19.254;2022-12-18T13:46:30;2.70;67.10
51215;DHT22;63849;47.546;19.254;2022-12-18T13:49:21;2.70;67.50
51215;DHT22;63849;47.546;19.254;2022-12-18T13:51:51;2.60;66.60
51215;DHT22;63849;47.546;19.254;2022-12-18T13:56:55;2.70;67.20
51215;DHT22;63849;47.546;19.254;2022-12-18T13:59:24;2.70;66.30
51215;DHT22;63849;47.546;19.254;2022-12-18T14:01:56;2.70;66.90
51215;DHT22;63849;47.546;19.254;2022-12-18T14:06:55;2.80;66.30
51215;DHT22;63849;47.546;19.254;2022-12-18T14:09:25;2.80;66.80
51215;DHT22;63849;47.546;19.254;2022-12-18T14:11:52;2.70;67.50
51215;DHT22;63849;47.546;19.254;2022-12-18T14:14:41;2.70;67.70
51215;DHT22;63849;47.546;19.254;2022-12-18T14:17:11;2.70;67.80
51215;DHT22;63849;47.546;19.254;2022-12-18T14:19:42;2.70;68.10
51215;DHT22;63849;47.546;19.254;2022-12-18T14:22:15;2.70;68.20
51215;DHT22;63849;47.546;19.254;2022-12-18T14:24:41;2.60;68.60
51215;DHT22;63849;47.546;19.254;2022-12-18T14:27:24;2.70;68.10
51215;DHT22;63849;47.546;19.254;2022-12-18T14:29:50;2.60;68.30
51215;DHT22;63849;47.546;19.254;2022-12-18T14:32:20;2.60;68.20
51215;DHT22;63849;47.546;19.254;2022-12-18T14:34:51;2.60;68.20
51215;DHT22;63849;47.546;19.254;2022-12-18T14:37:29;2.60;68.40
51215;DHT22;63849;47.546;19.254;2022-12-18T14:39:59;2.60;69.00
51215;DHT22;63849;47.546;19.254;2022-12-18T14:42:26;2.50;68.90
51215;DHT22;63849;47.546;19.254;2022-12-18T14:47:57;2.50;69.40
51215;DHT22;63849;47.546;19.254;2022-12-18T14:50:23;2.50;69.30
51215;DHT22;63849;47.546;19.254;2022-12-18T14:52:49;2.50;69.30
51215;DHT22;63849;47.546;19.254;2022-12-18T14:55:16;2.40;69.50
51215;DHT22;63849;47.546;19.254;2022-12-18T14:57:43;2.40;69.40
51215;DHT22;63849;47.546;19.254;2022-12-18T15:00:18;2.40;69.60
51215;DHT22;63849;47.546;19.254;2022-12-18T15:02:50;2.30;69.60
51215;DHT22;63849;47.546;19.254;2022-12-18T15:05:30;2.30;69.80
51215;DHT22;63849;47.546;19.254;2022-12-18T15:07:58;2.30;69.80
51215;DHT22;63849;47.546;19.254;2022-12-18T15:10:29;2.30;69.80
51215;DHT22;63849;47.546;19.254;2022-12-18T15:26:06;2.10;70.30
51215;DHT22;63849;47.546;19.254;2022-12-18T15:33:59;2.00;70.60
51215;DHT22;63849;47.546;19.254;2022-12-18T15:36:26;1.90;70.80
51215;DHT22;63849;47.546;19.254;2022-12-18T15:38:56;1.90;70.80
51215;DHT22;63849;47.546;19.254;2022-12-18T15:41:23;1.90;70.60
51215;DHT22;63849;47.546;19.254;2022-12-18T15:43:51;2.10;70.40
51215;DHT22;63849;47.546;19.254;2022-12-18T15:46:22;1.90;70.40
51215;DHT22;63849;47.546;19.254;2022-12-18T15:48:56;1.90;70.50
51215;DHT22;63849;47.546;19.254;2022-12-18T15:51:32;1.80;70.50
51215;DHT22;63849;47.546;19.254;2022-12-18T15:54:00;1.80;70.50
51215;DHT22;63849;47.546;19.254;2022-12-18T15:56:29;1.80;70.40
51215;DHT22;63849;47.546;19.254;2022-12-18T15:59:16;1.80;70.40
51215;DHT22;63849;47.546;19.254;2022-12-18T16:01:44;1.80;70.40
51215;DHT22;63849;47.546;19.254;2022-12-18T16:04:15;1.80;70.50
51215;DHT22;63849;47.546;19.254;2022-12-18T16:06:42;1.80;70.10
51215;DHT22;63849;47.546;19.254;2022-12-18T16:09:07;1.80;70.00
51215;DHT22;63849;47.546;19.254;2022-12-18T16:11:35;1.80;70.00
51215;DHT22;63849;47.546;19.254;2022-12-18T16:16:47;1.80;70.00
51215;DHT22;63849;47.546;19.254;2022-12-18T16:19:13;1.60;70.10
51215;DHT22;63849;47.546;19.254;2022-12-18T16:21:39;1.60;70.30
51215;DHT22;63849;47.546;19.254;2022-12-18T16:24:09;1.60;70.40
51215;DHT22;63849;47.546;19.254;2022-12-18T16:26:38;1.70;70.00
51215;DHT22;63849;47.546;19.254;2022-12-18T16:29:04;1.60;70.20
51215;DHT22;63849;47.546;19.254;2022-12-18T16:31:30;1.50;70.40
51215;DHT22;63849;47.546;19.254;2022-12-18T16:36:41;1.50;70.90
51215;DHT22;63849;47.546;19.254;2022-12-18T16:39:06;1.50;70.90
51215;DHT22;63849;47.546;19.254;2022-12-18T16:41:32;1.50;70.80
51215;DHT22;63849;47.546;19.254;2022-12-18T16:43:59;1.50;70.90
51215;DHT22;63849;47.546;19.254;2022-12-18T16:46:28;1.40;70.80
51215;DHT22;63849;47.546;19.254;2022-12-18T16:48:53;1.50;70.90
51215;DHT22;63849;47.546;19.254;2022-12-18T16:51:19;1.60;70.50
51215;DHT22;63849;47.546;19.254;2022-12-18T16:53:45;1.60;70.60
51215;DHT22;63849;47.546;19.254;2022-12-18T16:56:11;1.70;70.40
51215;DHT22;63849;47.546;19.254;2022-12-18T16:58:36;1.70;70.10
51215;DHT22;63849;47.546;19.254;2022-12-18T17:01:10;1.60;70.30
51215;DHT22;63849;47.546;19.254;2022-12-18T17:03:36;1.50;70.10
51215;DHT22;63849;47.546;19.254;2022-12-18T17:06:05;1.50;70.30
51215;DHT22;63849;47.546;19.254;2022-12-18T17:08:31;1.50;70.40
51215;DHT22;63849;47.546;19.254;2022-12-18T17:11:07;1.40;70.30
51215;DHT22;63849;47.546;19.254;2022-12-18T17:13:33;1.30;70.50
51215;DHT22;63849;47.546;19.254;2022-12-18T17:16:03;1.30;70.80
51215;DHT22;63849;47.546;19.254;2022-12-18T17:18:29;1.30;71.20
51215;DHT22;63849;47.546;19.254;2022-12-18T17:21:00;1.20;71.20
51215;DHT22;63849;47.546;19.254;2022-12-18T17:23:27;1.20;71.10
51215;DHT22;63849;47.546;19.254;2022-12-18T17:25:54;1.10;71.10
51215;DHT22;63849;47.546;19.254;2022-12-18T17:28:22;1.20;71.70
51215;DHT22;63849;47.546;19.254;2022-12-18T17:30:47;1.30;71.70
51215;DHT22;63849;47.546;19.254;2022-12-18T17:33:14;1.40;71.10
51215;DHT22;63849;47.546;19.254;2022-12-18T17:35:39;1.50;70.60
51215;DHT22;63849;47.546;19.254;2022-12-18T17:38:08;1.40;70.50
51215;DHT22;63849;47.546;19.254;2022-12-18T17:40:34;1.30;70.80
51215;DHT22;63849;47.546;19.254;2022-12-18T17:43:00;1.30;71.10
51215;DHT22;63849;47.546;19.254;2022-12-18T17:45:26;1.30;70.80
51215;DHT22;63849;47.546;19.254;2022-12-18T17:47:58;1.30;70.60
51215;DHT22;63849;47.546;19.254;2022-12-18T17:50:31;1.30;70.70
51215;DHT22;63849;47.546;19.254;2022-12-18T17:52:57;1.20;70.70
51215;DHT22;63849;47.546;19.254;2022-12-18T17:55:23;1.30;70.40
51215;DHT22;63849;47.546;19.254;2022-12-18T17:57:51;1.40;69.70
51215;DHT22;63849;47.546;19.254;2022-12-18T18:00:17;1.20;70.00